sensor_id;sensor_type;location;lat;lon;timestamp;pressure;altitude;pressure_sealevel;temperature;humidity
39363;BME280;25088;43.238;23.110;2023-02-13T00:02:13;98369.41;;;1.29;83.61
39363;BME280;25088;43.238;23.110;2023-02-13T00:04:40;98374.00;;;1.19;84.67
39363;BME280;25088;43.238;23.110;2023-02-13T00:07:07;98368.22;;;1.14;84.16
39363;BME280;25088;43.238;23.110;2023-02-13T00:09:33;98369.63;;;1.00;85.78
39363;BME280;25088;43.238;23.110;2023-02-13T00:11:58;98370.50;;;0.91;85.75
39363;BME280;25088;43.238;23.110;2023-02-13T00:14:24;98375.50;;;0.86;86.03
39363;BME280;25088;43.238;23.110;2023-02-13T00:16:49;98374.38;;;0.78;86.66
39363;BME280;25088;43.238;23.110;2023-02-13T00:19:15;98378.91;;;0.78;86.67
39363;BME280;25088;43.238;23.110;2023-02-13T00:21:41;98376.81;;;0.72;87.44
39363;BME280;25088;43.238;23.110;2023-02-13T00:24:06;98381.78;;;0.67;86.76
39363;BME280;25088;43.238;23.110;2023-02-13T00:26:32;98374.56;;;0.67;86.45
39363;BME280;25088;43.238;23.110;2023-02-13T00:28:57;98370.75;;;0.70;86.49
39363;BME280;25088;43.238;23.110;2023-02-13T00:31:23;98375.28;;;0.60;87.10
39363;BME280;25088;43.238;23.110;2023-02-13T00:33:49;98385.31;;;0.67;86.47
39363;BME280;25088;43.238;23.110;2023-02-13T00:36:17;98383.78;;;0.65;85.58
39363;BME280;25088;43.238;23.110;2023-02-13T00:38:43;98385.47;;;0.66;85.21
39363;BME280;25088;43.238;23.110;2023-02-13T00:41:10;98393.09;;;0.70;85.09
39363;BME280;25088;43.238;23.110;2023-02-13T00:43:36;98396.91;;;0.68;85.85
39363;BME280;25088;43.238;23.110;2023-02-13T00:46:03;98391.84;;;0.65;85.55
39363;BME280;25088;43.238;23.110;2023-02-13T00:48:30;98403.91;;;0.61;86.03
39363;BME280;25088;43.238;23.110;2023-02-13T00:50:56;98397.13;;;0.57;86.11
39363;BME280;25088;43.238;23.110;2023-02-13T00:53:23;98405.44;;;0.54;86.47
39363;BME280;25088;43.238;23.110;2023-02-13T00:55:48;98403.59;;;0.54;86.76
39363;BME280;25088;43.238;23.110;2023-02-13T00:58:15;98398.41;;;0.43;87.16
39363;BME280;25088;43.238;23.110;2023-02-13T01:00:41;98403.06;;;0.50;86.85
39363;BME280;25088;43.238;23.110;2023-02-13T01:03:07;98406.19;;;0.56;86.15
39363;BME280;25088;43.238;23.110;2023-02-13T01:05:33;98405.31;;;0.55;86.02
39363;BME280;25088;43.238;23.110;2023-02-13T01:07:59;98405.44;;;0.54;86.02
39363;BME280;25088;43.238;23.110;2023-02-13T01:10:25;98409.81;;;0.55;85.57
39363;BME280;25088;43.238;23.110;2023-02-13T01:12:51;98398.94;;;0.56;86.29
39363;BME280;25088;43.238;23.110;2023-02-13T01:15:17;98400.50;;;0.59;86.09
39363;BME280;25088;43.238;23.110;2023-02-13T01:17:42;98381.88;;;0.47;85.88
39363;BME280;25088;43.238;23.110;2023-02-13T01:20:10;98404.56;;;0.63;85.06
39363;BME280;25088;43.238;23.110;2023-02-13T01:22:36;98403.03;;;0.60;85.07
39363;BME280;25088;43.238;23.110;2023-02-13T01:25:01;98395.50;;;0.64;85.34
39363;BME280;25088;43.238;23.110;2023-02-13T01:27:27;98397.78;;;0.59;85.54
39363;BME280;25088;43.238;23.110;2023-02-13T01:29:53;98394.41;;;0.57;85.68
39363;BME280;25088;43.238;23.110;2023-02-13T01:32:20;98382.28;;;0.52;86.29
39363;BME280;25088;43.238;23.110;2023-02-13T01:34:45;98375.50;;;0.48;86.21
39363;BME280;25088;43.238;23.110;2023-02-13T01:37:11;98369.16;;;0.40;86.24
39363;BME280;25088;43.238;23.110;2023-02-13T01:39:36;98390.19;;;0.44;87.06
39363;BME280;25088;43.238;23.110;2023-02-13T01:42:02;98390.09;;;0.36;87.44
39363;BME280;25088;43.238;23.110;2023-02-13T01:47:40;98381.06;;;0.28;87.64
39363;BME280;25088;43.238;23.110;2023-02-13T01:50:13;98379.97;;;0.20;87.82
39363;BME280;25088;43.238;23.110;2023-02-13T01:52:44;98377.13;;;0.22;87.73
39363;BME280;25088;43.238;23.110;2023-02-13T01:55:13;98385.03;;;0.23;87.95
39363;BME280;25088;43.238;23.110;2023-02-13T01:57:41;98378.97;;;0.21;88.08
39363;BME280;25088;43.238;23.110;2023-02-13T02:00:13;98380.25;;;0.17;88.37
39363;BME280;25088;43.238;23.110;2023-02-13T02:02:46;98378.69;;;0.15;88.07
39363;BME280;25088;43.238;23.110;2023-02-13T02:05:14;98360.22;;;0.02;87.85
39363;BME280;25088;43.238;23.110;2023-02-13T02:07:41;98365.00;;;0.08;87.67
39363;BME280;25088;43.238;23.110;2023-02-13T02:10:10;98386.34;;;0.10;88.19
39363;BME280;25088;43.238;23.110;2023-02-13T02:12:46;98379.16;;;0.01;88.74
39363;BME280;25088;43.238;23.110;2023-02-13T02:15:14;98381.72;;;-0.08;88.90
39363;BME280;25088;43.238;23.110;2023-02-13T02:17:40;98386.09;;;-0.07;88.96
39363;BME280;25088;43.238;23.110;2023-02-13T02:39:41;98395.56;;;-0.51;92.38
39363;BME280;25088;43.238;23.110;2023-02-13T02:42:48;98396.56;;;-0.52;92.04
39363;BME280;25088;43.238;23.110;2023-02-13T02:45:49;98400.66;;;-0.58;92.04
39363;BME280;25088;43.238;23.110;2023-02-13T02:54:45;98383.53;;;-0.66;92.42
39363;BME280;25088;43.238;23.110;2023-02-13T02:57:41;98396.97;;;-0.57;91.92
39363;BME280;25088;43.238;23.110;2023-02-13T03:00:28;98370.44;;;-0.69;90.63
39363;BME280;25088;43.238;23.110;2023-02-13T03:03:21;98387.66;;;-0.53;91.18
39363;BME280;25088;43.238;23.110;2023-02-13T03:06:18;98393.16;;;-0.54;91.25
39363;BME280;25088;43.238;23.110;2023-02-13T03:08:53;98391.75;;;-0.48;90.72
39363;BME280;25088;43.238;23.110;2023-02-13T03:11:38;98377.63;;;-0.50;90.65
39363;BME280;25088;43.238;23.110;2023-02-13T03:14:24;98376.66;;;-0.49;90.47
39363;BME280;25088;43.238;23.110;2023-02-13T03:16:51;98386.97;;;-0.55;90.62
39363;BME280;25088;43.238;23.110;2023-02-13T03:20:30;98378.91;;;-0.64;91.36
39363;BME280;25088;43.238;23.110;2023-02-13T03:23:25;98382.97;;;-0.70;93.46
39363;BME280;25088;43.238;23.110;2023-02-13T03:29:05;98384.53;;;-0.77;92.44
39363;BME280;25088;43.238;23.110;2023-02-13T03:32:40;98388.91;;;-0.76;93.01
39363;BME280;25088;43.238;23.110;2023-02-13T03:37:43;98374.06;;;-0.80;92.92
39363;BME280;25088;43.238;23.110;2023-02-13T03:43:41;98379.28;;;-0.88;94.01
39363;BME280;25088;43.238;23.110;2023-02-13T03:46:10;98377.47;;;-0.88;92.90
39363;BME280;25088;43.238;23.110;2023-02-13T03:48:38;98384.66;;;-0.88;92.31
39363;BME280;25088;43.238;23.110;2023-02-13T03:51:28;98384.78;;;-0.90;92.36
39363;BME280;25088;43.238;23.110;2023-02-13T03:53:59;98385.66;;;-0.89;92.61
39363;BME280;25088;43.238;23.110;2023-02-13T03:56:28;98380.97;;;-0.97;92.93
39363;BME280;25088;43.238;23.110;2023-02-13T03:59:20;98372.25;;;-0.89;91.90
39363;BME280;25088;43.238;23.110;2023-02-13T04:02:13;98367.31;;;-0.84;91.62
39363;BME280;25088;43.238;23.110;2023-02-13T04:04:54;98379.13;;;-0.96;92.83
39363;BME280;25088;43.238;23.110;2023-02-13T04:07:24;98372.63;;;-1.03;94.04
39363;BME280;25088;43.238;23.110;2023-02-13T04:10:07;98378.94;;;-1.05;93.96
39363;BME280;25088;43.238;23.110;2023-02-13T04:13:05;98372.34;;;-1.00;92.79
39363;BME280;25088;43.238;23.110;2023-02-13T04:15:42;98362.47;;;-1.00;92.28
39363;BME280;25088;43.238;23.110;2023-02-13T04:18:19;98363.59;;;-1.02;92.28
39363;BME280;25088;43.238;23.110;2023-02-13T04:20:46;98364.59;;;-1.03;92.71
39363;BME280;25088;43.238;23.110;2023-02-13T04:23:11;98373.19;;;-1.00;95.04
39363;BME280;25088;43.238;23.110;2023-02-13T04:25:39;98372.06;;;-0.97;93.25
39363;BME280;25088;43.238;23.110;2023-02-13T04:28:05;98367.84;;;-0.90;92.44
39363;BME280;25088;43.238;23.110;2023-02-13T04:30:31;98373.75;;;-0.96;92.01
39363;BME280;25088;43.238;23.110;2023-02-13T04:32:57;98372.06;;;-1.07;94.56
39363;BME280;25088;43.238;23.110;2023-02-13T04:35:22;98373.16;;;-1.10;96.22
39363;BME280;25088;43.238;23.110;2023-02-13T04:37:48;98356.19;;;-1.30;97.58
39363;BME280;25088;43.238;23.110;2023-02-13T04:40:13;98379.38;;;-1.19;95.16
39363;BME280;25088;43.238;23.110;2023-02-13T04:42:39;98374.84;;;-1.18;95.01
39363;BME280;25088;43.238;23.110;2023-02-13T04:45:05;98388.38;;;-1.20;94.19
39363;BME280;25088;43.238;23.110;2023-02-13T04:47:30;98389.50;;;-1.22;96.36
39363;BME280;25088;43.238;23.110;2023-02-13T04:49:56;98388.66;;;-1.23;95.45
39363;BME280;25088;43.238;23.110;2023-02-13T04:52:21;98386.81;;;-1.22;95.01
39363;BME280;25088;43.238;23.110;2023-02-13T04:54:47;98391.75;;;-1.27;94.25
39363;BME280;25088;43.238;23.110;2023-02-13T04:57:12;98368.00;;;-1.42;94.00
39363;BME280;25088;43.238;23.110;2023-02-13T04:59:38;98397.91;;;-1.37;93.78
39363;BME280;25088;43.238;23.110;2023-02-13T05:02:03;98398.91;;;-1.38;97.64
39363;BME280;25088;43.238;23.110;2023-02-13T05:04:29;98402.56;;;-1.39;97.91
39363;BME280;25088;43.238;23.110;2023-02-13T05:06:54;98405.53;;;-1.32;95.16
39363;BME280;25088;43.238;23.110;2023-02-13T05:09:20;98415.00;;;-1.28;94.21
39363;BME280;25088;43.238;23.110;2023-02-13T05:11:45;98409.22;;;-1.33;95.06
39363;BME280;25088;43.238;23.110;2023-02-13T05:14:11;98412.00;;;-1.35;93.61
39363;BME280;25088;43.238;23.110;2023-02-13T05:16:37;98408.75;;;-1.38;93.60
39363;BME280;25088;43.238;23.110;2023-02-13T05:19:02;98406.09;;;-1.38;93.05
39363;BME280;25088;43.238;23.110;2023-02-13T05:21:28;98418.94;;;-1.32;93.04
39363;BME280;25088;43.238;23.110;2023-02-13T05:24:12;98423.84;;;-1.37;92.52
39363;BME280;25088;43.238;23.110;2023-02-13T05:26:37;98419.75;;;-1.41;92.96
39363;BME280;25088;43.238;23.110;2023-02-13T05:29:03;98424.09;;;-1.40;93.40
39363;BME280;25088;43.238;23.110;2023-02-13T05:31:49;98423.31;;;-1.31;92.22
39363;BME280;25088;43.238;23.110;2023-02-13T05:34:15;98430.34;;;-1.30;91.71
39363;BME280;25088;43.238;23.110;2023-02-13T05:36:41;98433.19;;;-1.32;91.55
39363;BME280;25088;43.238;23.110;2023-02-13T05:39:07;98443.25;;;-1.24;91.12
39363;BME280;25088;43.238;23.110;2023-02-13T05:41:32;98447.50;;;-1.12;91.01
39363;BME280;25088;43.238;23.110;2023-02-13T05:43:58;98435.94;;;-1.12;90.85
39363;BME280;25088;43.238;23.110;2023-02-13T05:46:23;98433.53;;;-1.15;89.76
39363;BME280;25088;43.238;23.110;2023-02-13T05:48:50;98435.47;;;-1.27;89.47
39363;BME280;25088;43.238;23.110;2023-02-13T05:51:15;98439.88;;;-1.16;90.00
39363;BME280;25088;43.238;23.110;2023-02-13T05:53:40;98447.94;;;-1.07;89.23
39363;BME280;25088;43.238;23.110;2023-02-13T05:56:06;98442.59;;;-1.07;88.43
39363;BME280;25088;43.238;23.110;2023-02-13T05:58:33;98443.47;;;-0.96;88.07
39363;BME280;25088;43.238;23.110;2023-02-13T06:00:59;98434.88;;;-0.90;87.12
39363;BME280;25088;43.238;23.110;2023-02-13T06:03:25;98433.75;;;-0.88;86.43
39363;BME280;25088;43.238;23.110;2023-02-13T06:05:52;98438.63;;;-0.53;84.90
39363;BME280;25088;43.238;23.110;2023-02-13T06:08:18;98436.09;;;-0.06;81.16
39363;BME280;25088;43.238;23.110;2023-02-13T06:10:48;98435.50;;;0.30;77.94
39363;BME280;25088;43.238;23.110;2023-02-13T06:13:15;98426.53;;;0.58;75.57
39363;BME280;25088;43.238;23.110;2023-02-13T06:15:40;98434.22;;;0.81;74.57
39363;BME280;25088;43.238;23.110;2023-02-13T06:18:06;98426.09;;;1.00;73.12
39363;BME280;25088;43.238;23.110;2023-02-13T06:20:32;98426.50;;;1.23;73.01
39363;BME280;25088;43.238;23.110;2023-02-13T06:22:57;98433.56;;;1.51;72.31
39363;BME280;25088;43.238;23.110;2023-02-13T06:25:23;98426.22;;;1.89;69.08
39363;BME280;25088;43.238;23.110;2023-02-13T06:27:49;98426.78;;;2.19;66.96
39363;BME280;25088;43.238;23.110;2023-02-13T06:30:15;98413.81;;;2.40;65.11
39363;BME280;25088;43.238;23.110;2023-02-13T06:32:41;98410.69;;;2.53;63.18
39363;BME280;25088;43.238;23.110;2023-02-13T06:35:07;98409.09;;;2.68;63.17
39363;BME280;25088;43.238;23.110;2023-02-13T06:37:32;98403.03;;;3.00;62.43
39363;BME280;25088;43.238;23.110;2023-02-13T06:39:58;98408.22;;;3.36;60.59
39363;BME280;25088;43.238;23.110;2023-02-13T06:42:23;98410.97;;;3.52;60.55
39363;BME280;25088;43.238;23.110;2023-02-13T06:44:49;98401.22;;;3.76;59.56
39363;BME280;25088;43.238;23.110;2023-02-13T06:47:15;98409.03;;;4.03;57.67
39363;BME280;25088;43.238;23.110;2023-02-13T06:49:40;98414.94;;;4.23;58.12
39363;BME280;25088;43.238;23.110;2023-02-13T06:52:06;98412.59;;;4.28;57.21
39363;BME280;25088;43.238;23.110;2023-02-13T06:54:32;98406.81;;;4.39;56.61
39363;BME280;25088;43.238;23.110;2023-02-13T06:56:57;98411.53;;;4.46;56.44
39363;BME280;25088;43.238;23.110;2023-02-13T06:59:23;98409.13;;;4.67;55.73
39363;BME280;25088;43.238;23.110;2023-02-13T07:01:48;98411.59;;;5.01;55.05
39363;BME280;25088;43.238;23.110;2023-02-13T07:04:14;98408.84;;;5.17;54.42
39363;BME280;25088;43.238;23.110;2023-02-13T07:06:39;98408.34;;;5.14;54.11
39363;BME280;25088;43.238;23.110;2023-02-13T07:09:05;98402.41;;;5.18;54.02
39363;BME280;25088;43.238;23.110;2023-02-13T07:11:31;98391.19;;;5.22;53.94
39363;BME280;25088;43.238;23.110;2023-02-13T07:13:59;98406.47;;;5.54;53.34
39363;BME280;25088;43.238;23.110;2023-02-13T07:16:24;98406.63;;;6.06;52.70
39363;BME280;25088;43.238;23.110;2023-02-13T07:18:49;98409.69;;;6.26;51.58
39363;BME280;25088;43.238;23.110;2023-02-13T07:21:18;98398.19;;;6.47;51.52
39363;BME280;25088;43.238;23.110;2023-02-13T07:23:43;98404.00;;;6.59;50.93
39363;BME280;25088;43.238;23.110;2023-02-13T07:26:08;98408.72;;;6.94;50.65
39363;BME280;25088;43.238;23.110;2023-02-13T07:28:35;98401.31;;;7.18;49.56
39363;BME280;25088;43.238;23.110;2023-02-13T07:31:04;98401.19;;;7.41;49.00
39363;BME280;25088;43.238;23.110;2023-02-13T07:33:31;98403.81;;;7.85;47.98
39363;BME280;25088;43.238;23.110;2023-02-13T07:35:57;98404.72;;;8.14;48.90
39363;BME280;25088;43.238;23.110;2023-02-13T07:38:22;98400.06;;;8.72;46.12
39363;BME280;25088;43.238;23.110;2023-02-13T07:40:47;98396.06;;;9.02;45.64
39363;BME280;25088;43.238;23.110;2023-02-13T07:43:13;98392.38;;;9.17;44.83
39363;BME280;25088;43.238;23.110;2023-02-13T07:45:38;98399.63;;;9.38;45.04
39363;BME280;25088;43.238;23.110;2023-02-13T07:48:04;98373.25;;;9.45;44.74
39363;BME280;25088;43.238;23.110;2023-02-13T07:50:29;98391.81;;;9.82;44.26
39363;BME280;25088;43.238;23.110;2023-02-13T07:52:56;98384.78;;;10.21;43.41
39363;BME280;25088;43.238;23.110;2023-02-13T07:55:22;98379.38;;;10.61;42.76
39363;BME280;25088;43.238;23.110;2023-02-13T07:57:48;98365.91;;;10.79;43.50
39363;BME280;25088;43.238;23.110;2023-02-13T08:00:15;98370.06;;;10.88;42.08
39363;BME280;25088;43.238;23.110;2023-02-13T08:02:40;98356.03;;;10.72;42.01
39363;BME280;25088;43.238;23.110;2023-02-13T08:05:06;98362.91;;;11.07;42.48
39363;BME280;25088;43.238;23.110;2023-02-13T08:07:34;98364.75;;;11.27;42.82
39363;BME280;25088;43.238;23.110;2023-02-13T08:09:59;98364.44;;;11.48;41.28
39363;BME280;25088;43.238;23.110;2023-02-13T08:12:44;98366.44;;;11.73;40.51
39363;BME280;25088;43.238;23.110;2023-02-13T08:15:11;98363.97;;;12.03;39.85
39363;BME280;25088;43.238;23.110;2023-02-13T08:17:37;98356.69;;;12.28;39.32
39363;BME280;25088;43.238;23.110;2023-02-13T08:20:07;98349.16;;;12.49;38.96
39363;BME280;25088;43.238;23.110;2023-02-13T08:22:34;98341.13;;;12.47;39.03
39363;BME280;25088;43.238;23.110;2023-02-13T08:25:00;98350.06;;;12.61;39.24
39363;BME280;25088;43.238;23.110;2023-02-13T08:27:25;98351.19;;;12.78;39.82
39363;BME280;25088;43.238;23.110;2023-02-13T08:29:53;98350.44;;;12.89;39.11
39363;BME280;25088;43.238;23.110;2023-02-13T08:32:19;98351.16;;;13.03;39.32
39363;BME280;25088;43.238;23.110;2023-02-13T08:34:44;98351.41;;;13.20;38.21
39363;BME280;25088;43.238;23.110;2023-02-13T08:37:10;98358.28;;;13.29;37.97
39363;BME280;25088;43.238;23.110;2023-02-13T08:39:35;98357.38;;;13.35;37.20
39363;BME280;25088;43.238;23.110;2023-02-13T08:42:00;98353.84;;;13.65;36.30
39363;BME280;25088;43.238;23.110;2023-02-13T08:44:26;98354.97;;;13.76;37.42
39363;BME280;25088;43.238;23.110;2023-02-13T08:46:51;98356.63;;;13.77;37.51
39363;BME280;25088;43.238;23.110;2023-02-13T08:49:17;98347.09;;;13.98;37.30
39363;BME280;25088;43.238;23.110;2023-02-13T08:51:43;98350.25;;;14.13;37.50
39363;BME280;25088;43.238;23.110;2023-02-13T08:54:08;98349.44;;;14.36;36.58
39363;BME280;25088;43.238;23.110;2023-02-13T08:56:34;98343.78;;;14.49;37.84
39363;BME280;25088;43.238;23.110;2023-02-13T08:58:59;98339.63;;;14.58;36.97
39363;BME280;25088;43.238;23.110;2023-02-13T09:01:25;98342.03;;;14.78;36.79
39363;BME280;25088;43.238;23.110;2023-02-13T09:03:50;98339.50;;;14.77;36.36
39363;BME280;25088;43.238;23.110;2023-02-13T09:06:16;98338.44;;;14.89;36.13
39363;BME280;25088;43.238;23.110;2023-02-13T09:08:42;98332.47;;;14.92;35.86
39363;BME280;25088;43.238;23.110;2023-02-13T09:11:08;98333.41;;;14.98;35.94
39363;BME280;25088;43.238;23.110;2023-02-13T09:13:34;98328.72;;;15.10;36.06
39363;BME280;25088;43.238;23.110;2023-02-13T09:16:06;98326.09;;;15.04;35.77
39363;BME280;25088;43.238;23.110;2023-02-13T09:18:32;98326.09;;;15.15;35.76
39363;BME280;25088;43.238;23.110;2023-02-13T09:21:17;98320.38;;;15.17;35.58
39363;BME280;25088;43.238;23.110;2023-02-13T09:23:45;98304.69;;;15.06;34.94
39363;BME280;25088;43.238;23.110;2023-02-13T09:26:13;98325.63;;;15.18;35.36
39363;BME280;25088;43.238;23.110;2023-02-13T09:28:39;98321.19;;;15.06;35.70
39363;BME280;25088;43.238;23.110;2023-02-13T09:31:18;98318.16;;;15.42;34.96
39363;BME280;25088;43.238;23.110;2023-02-13T09:33:44;98319.81;;;15.43;35.12
39363;BME280;25088;43.238;23.110;2023-02-13T09:36:13;98314.81;;;15.81;33.90
39363;BME280;25088;43.238;23.110;2023-02-13T09:38:40;98317.91;;;15.84;34.69
39363;BME280;25088;43.238;23.110;2023-02-13T09:41:15;98313.22;;;15.96;34.32
39363;BME280;25088;43.238;23.110;2023-02-13T09:43:52;98308.19;;;15.93;33.71
39363;BME280;25088;43.238;23.110;2023-02-13T09:46:27;98305.81;;;16.14;33.28
39363;BME280;25088;43.238;23.110;2023-02-13T09:48:56;98298.28;;;16.09;33.07
39363;BME280;25088;43.238;23.110;2023-02-13T09:51:24;98302.28;;;16.01;32.93
39363;BME280;25088;43.238;23.110;2023-02-13T09:53:58;98301.38;;;16.13;33.24
39363;BME280;25088;43.238;23.110;2023-02-13T10:01:56;98284.72;;;16.36;32.58
39363;BME280;25088;43.238;23.110;2023-02-13T10:07:43;98273.34;;;16.33;32.13
39363;BME280;25088;43.238;23.110;2023-02-13T10:10:29;98272.81;;;16.19;32.42
39363;BME280;25088;43.238;23.110;2023-02-13T10:13:15;98274.81;;;16.40;32.59
39363;BME280;25088;43.238;23.110;2023-02-13T10:18:21;98257.19;;;16.75;32.36
39363;BME280;25088;43.238;23.110;2023-02-13T10:20:51;98252.84;;;16.96;31.87
39363;BME280;25088;43.238;23.110;2023-02-13T10:23:23;98251.94;;;17.12;31.43
39363;BME280;25088;43.238;23.110;2023-02-13T10:26:00;98247.25;;;17.13;30.93
39363;BME280;25088;43.238;23.110;2023-02-13T10:28:39;98249.22;;;16.95;31.33
39363;BME280;25088;43.238;23.110;2023-02-13T10:31:10;98237.41;;;16.78;31.88
39363;BME280;25088;43.238;23.110;2023-02-13T10:33:45;98246.91;;;16.87;31.53
39363;BME280;25088;43.238;23.110;2023-02-13T10:36:20;98241.88;;;17.01;31.40
39363;BME280;25088;43.238;23.110;2023-02-13T10:39:00;98242.66;;;16.79;31.61
39363;BME280;25088;43.238;23.110;2023-02-13T10:53:11;98242.47;;;17.74;31.03
39363;BME280;25088;43.238;23.110;2023-02-13T10:55:59;98226.28;;;17.82;29.32
39363;BME280;25088;43.238;23.110;2023-02-13T11:01:32;98231.63;;;17.94;29.28
39363;BME280;25088;43.238;23.110;2023-02-13T11:04:09;98232.31;;;17.79;29.94
39363;BME280;25088;43.238;23.110;2023-02-13T11:06:39;98228.69;;;18.01;29.91
39363;BME280;25088;43.238;23.110;2023-02-13T11:09:07;98225.22;;;17.40;30.64
39363;BME280;25088;43.238;23.110;2023-02-13T11:11:36;98228.03;;;17.67;30.46
39363;BME280;25088;43.238;23.110;2023-02-13T11:14:21;98227.53;;;17.97;30.40
39363;BME280;25088;43.238;23.110;2023-02-13T11:19:25;98220.75;;;17.82;30.66
39363;BME280;25088;43.238;23.110;2023-02-13T11:21:56;98213.41;;;17.93;30.67
39363;BME280;25088;43.238;23.110;2023-02-13T11:24:25;98211.81;;;18.02;30.73
39363;BME280;25088;43.238;23.110;2023-02-13T11:26:57;98203.06;;;18.11;30.68
39363;BME280;25088;43.238;23.110;2023-02-13T11:29:30;98205.78;;;18.05;30.24
39363;BME280;25088;43.238;23.110;2023-02-13T11:34:31;98202.88;;;17.90;30.73
39363;BME280;25088;43.238;23.110;2023-02-13T11:37:19;98193.28;;;17.98;30.44
39363;BME280;25088;43.238;23.110;2023-02-13T11:39:47;98198.06;;;18.07;30.45
39363;BME280;25088;43.238;23.110;2023-02-13T11:44:40;98188.84;;;18.34;30.48
39363;BME280;25088;43.238;23.110;2023-02-13T11:47:06;98169.34;;;18.14;31.19
39363;BME280;25088;43.238;23.110;2023-02-13T11:49:36;98184.50;;;18.43;29.96
39363;BME280;25088;43.238;23.110;2023-02-13T11:52:05;98183.44;;;18.49;31.29
39363;BME280;25088;43.238;23.110;2023-02-13T11:54:35;98182.97;;;18.63;30.32
39363;BME280;25088;43.238;23.110;2023-02-13T11:57:27;98178.13;;;18.43;29.84
39363;BME280;25088;43.238;23.110;2023-02-13T11:59:54;98178.97;;;18.43;29.56
39363;BME280;25088;43.238;23.110;2023-02-13T12:02:29;98177.47;;;18.25;29.94
39363;BME280;25088;43.238;23.110;2023-02-13T12:05:19;98176.19;;;18.43;30.17
39363;BME280;25088;43.238;23.110;2023-02-13T12:07:46;98165.47;;;18.52;30.40
39363;BME280;25088;43.238;23.110;2023-02-13T12:10:19;98167.19;;;18.63;30.32
39363;BME280;25088;43.238;23.110;2023-02-13T12:15:30;98165.81;;;18.60;29.64
39363;BME280;25088;43.238;23.110;2023-02-13T12:20:51;98148.94;;;18.62;29.59
39363;BME280;25088;43.238;23.110;2023-02-13T12:39:32;98123.94;;;18.04;29.90
39363;BME280;25088;43.238;23.110;2023-02-13T12:45:15;98099.75;;;18.22;29.97
39363;BME280;25088;43.238;23.110;2023-02-13T12:50:50;98105.47;;;18.52;29.79
39363;BME280;25088;43.238;23.110;2023-02-13T12:56:18;98098.81;;;18.53;29.66
39363;BME280;25088;43.238;23.110;2023-02-13T13:04:30;98083.22;;;18.27;30.33
39363;BME280;25088;43.238;23.110;2023-02-13T13:10:38;98077.53;;;18.01;30.33
39363;BME280;25088;43.238;23.110;2023-02-13T13:22:01;98079.78;;;18.15;30.11
39363;BME280;25088;43.238;23.110;2023-02-13T13:27:35;98074.66;;;18.33;29.83
39363;BME280;25088;43.238;23.110;2023-02-13T13:32:40;98072.44;;;18.30;29.27
39363;BME280;25088;43.238;23.110;2023-02-13T13:35:19;98071.72;;;18.03;30.22
39363;BME280;25088;43.238;23.110;2023-02-13T13:40:44;98081.97;;;18.55;29.23
39363;BME280;25088;43.238;23.110;2023-02-13T13:43:40;98067.41;;;18.22;30.02
39363;BME280;25088;43.238;23.110;2023-02-13T13:51:50;98066.94;;;17.93;30.30
39363;BME280;25088;43.238;23.110;2023-02-13T13:54:18;98071.69;;;17.66;30.67
39363;BME280;25088;43.238;23.110;2023-02-13T14:07:33;98063.72;;;17.37;31.04
39363;BME280;25088;43.238;23.110;2023-02-13T14:09:59;98056.97;;;17.60;30.17
39363;BME280;25088;43.238;23.110;2023-02-13T14:14:54;98056.75;;;17.62;30.20
39363;BME280;25088;43.238;23.110;2023-02-13T14:17:46;98061.84;;;17.75;29.97
39363;BME280;25088;43.238;23.110;2023-02-13T14:20:27;98065.53;;;17.58;30.71
39363;BME280;25088;43.238;23.110;2023-02-13T14:22:55;98070.53;;;17.29;30.91
39363;BME280;25088;43.238;23.110;2023-02-13T14:25:24;98060.84;;;17.27;30.86
39363;BME280;25088;43.238;23.110;2023-02-13T14:28:02;98072.47;;;17.02;31.29
39363;BME280;25088;43.238;23.110;2023-02-13T14:30:31;98073.31;;;16.80;31.29
39363;BME280;25088;43.238;23.110;2023-02-13T14:33:27;98068.44;;;16.88;31.45
39363;BME280;25088;43.238;23.110;2023-02-13T14:36:19;98066.81;;;16.70;31.46
39363;BME280;25088;43.238;23.110;2023-02-13T14:38:55;98073.25;;;16.53;31.91
39363;BME280;25088;43.238;23.110;2023-02-13T14:44:19;98071.94;;;16.00;33.96
39363;BME280;25088;43.238;23.110;2023-02-13T14:46:48;98072.09;;;15.72;34.59
39363;BME280;25088;43.238;23.110;2023-02-13T14:51:50;98065.25;;;14.43;35.82
39363;BME280;25088;43.238;23.110;2023-02-13T14:54:33;98073.50;;;12.96;38.13
39363;BME280;25088;43.238;23.110;2023-02-13T15:00:06;98090.34;;;9.20;44.77
39363;BME280;25088;43.238;23.110;2023-02-13T15:02:41;98108.19;;;8.42;47.39
39363;BME280;25088;43.238;23.110;2023-02-13T15:05:16;98106.41;;;7.86;48.30
39363;BME280;25088;43.238;23.110;2023-02-13T15:08:12;98095.28;;;7.53;49.13
39363;BME280;25088;43.238;23.110;2023-02-13T15:10:48;98102.28;;;7.41;50.32
39363;BME280;25088;43.238;23.110;2023-02-13T15:13:20;98107.38;;;7.22;51.19
39363;BME280;25088;43.238;23.110;2023-02-13T15:16:09;98111.72;;;6.95;52.47
39363;BME280;25088;43.238;23.110;2023-02-13T15:18:44;98114.50;;;6.81;53.29
39363;BME280;25088;43.238;23.110;2023-02-13T15:21:17;98107.53;;;6.71;53.37
39363;BME280;25088;43.238;23.110;2023-02-13T15:23:53;98117.28;;;6.51;54.04
39363;BME280;25088;43.238;23.110;2023-02-13T15:26:25;98100.72;;;6.25;54.79
39363;BME280;25088;43.238;23.110;2023-02-13T15:29:10;98115.31;;;6.24;55.46
39363;BME280;25088;43.238;23.110;2023-02-13T15:31:37;98127.28;;;6.00;56.45
39363;BME280;25088;43.238;23.110;2023-02-13T15:34:03;98116.50;;;5.77;57.26
39363;BME280;25088;43.238;23.110;2023-02-13T15:36:47;98122.94;;;5.61;57.78
39363;BME280;25088;43.238;23.110;2023-02-13T15:39:18;98121.78;;;5.40;58.38
39363;BME280;25088;43.238;23.110;2023-02-13T15:41:50;98114.22;;;5.36;58.97
39363;BME280;25088;43.238;23.110;2023-02-13T15:44:24;98121.59;;;5.27;59.88
39363;BME280;25088;43.238;23.110;2023-02-13T15:47:25;98114.09;;;5.14;60.63
39363;BME280;25088;43.238;23.110;2023-02-13T15:49:50;98117.56;;;5.00;61.50